createdAt,value
2023-03-31T00:01:11.145Z,7.30
2023-03-31T00:03:44.606Z,7.10
2023-03-31T00:06:18.387Z,7.18
2023-03-31T00:08:51.621Z,6.85
2023-03-31T00:11:21.873Z,6.53
2023-03-31T00:13:50.204Z,7.22
2023-03-31T00:16:18.534Z,6.95
2023-03-31T00:18:47.346Z,6.60
2023-03-31T00:21:25.824Z,7.18
2023-03-31T00:23:56.527Z,6.40
2023-03-31T00:26:26.145Z,6.78
2023-03-31T00:28:54.941Z,6.25
2023-03-31T00:31:24.294Z,6.10
2023-03-31T00:33:52.607Z,6.03
2023-03-31T00:36:27.246Z,6.45
2023-03-31T00:38:59.120Z,6.03
2023-03-31T00:41:29.906Z,6.10
2023-03-31T00:44:13.402Z,6.68
2023-03-31T00:46:48.442Z,5.53
2023-03-31T00:49:26.401Z,5.43
2023-03-31T00:52:03.289Z,5.55
2023-03-31T00:54:35.721Z,5.53
2023-03-31T00:57:07.372Z,5.30
2023-03-31T00:59:41.673Z,5.80
2023-03-31T01:02:11.283Z,4.82
2023-03-31T01:04:47.262Z,5.00
2023-03-31T01:07:25.628Z,5.18
2023-03-31T01:10:00.263Z,6.15
2023-03-31T01:12:29.543Z,5.35
2023-03-31T01:14:58.117Z,5.18
2023-03-31T01:17:29.837Z,5.03
2023-03-31T01:20:15.925Z,4.95
2023-03-31T01:23:33.229Z,5.03
2023-03-31T01:26:44.950Z,4.97
2023-03-31T01:29:44.638Z,5.85
2023-03-31T01:33:06.818Z,5.65
2023-03-31T01:36:13.890Z,4.78
2023-03-31T01:39:25.091Z,4.47
2023-03-31T01:42:08.564Z,5.60
2023-03-31T01:44:46.167Z,5.18
2023-03-31T01:47:23.308Z,5.57
2023-03-31T01:50:01.428Z,4.72
2023-03-31T01:52:38.712Z,5.10
2023-03-31T01:55:13.536Z,6.43
2023-03-31T01:57:50.284Z,5.70
2023-03-31T02:00:23.535Z,5.03
2023-03-31T02:03:00.393Z,5.88
2023-03-31T02:05:36.051Z,6.13
2023-03-31T02:08:10.004Z,6.13
2023-03-31T02:10:41.839Z,5.30
2023-03-31T02:13:14.738Z,5.05
2023-03-31T02:15:50.478Z,5.38
2023-03-31T02:18:26.219Z,5.40
2023-03-31T02:20:57.468Z,5.47
2023-03-31T02:23:31.594Z,6.65
2023-03-31T02:26:06.498Z,5.88
2023-03-31T02:28:37.096Z,5.40
2023-03-31T02:31:24.791Z,5.57
2023-03-31T02:33:53.512Z,6.10
2023-03-31T02:36:22.537Z,6.13
2023-03-31T02:38:57.733Z,6.07
2023-03-31T02:41:28.927Z,6.93
2023-03-31T02:43:59.987Z,6.22
2023-03-31T02:46:29.980Z,6.90
2023-03-31T02:49:08.128Z,6.03
2023-03-31T02:52:01.730Z,6.65
2023-03-31T02:55:01.080Z,6.80
2023-03-31T02:58:02.293Z,7.05
2023-03-31T03:00:48.285Z,7.15
2023-03-31T03:03:37.961Z,7.60
2023-03-31T03:06:27.789Z,6.25
2023-03-31T03:09:33.741Z,7.57
2023-03-31T03:12:12.115Z,8.45
2023-03-31T03:14:49.309Z,7.80
2023-03-31T03:17:27.707Z,8.32
2023-03-31T03:19:59.763Z,8.13
2023-03-31T03:22:28.372Z,7.20
2023-03-31T03:24:56.643Z,6.45
2023-03-31T03:27:24.956Z,7.43
2023-03-31T03:29:53.550Z,7.57
2023-03-31T03:32:23.309Z,6.65
2023-03-31T03:34:51.572Z,7.40
2023-03-31T03:37:19.838Z,7.07
2023-03-31T03:39:48.046Z,7.10
2023-03-31T03:42:16.842Z,6.53
2023-03-31T03:44:45.165Z,7.18
2023-03-31T03:47:13.378Z,7.25
2023-03-31T03:49:43.028Z,7.35
2023-03-31T03:52:11.267Z,6.72
2023-03-31T03:54:39.533Z,6.38
2023-03-31T03:57:08.326Z,7.13
2023-03-31T03:59:36.593Z,7.72
2023-03-31T04:02:04.918Z,7.45
2023-03-31T04:04:33.307Z,8.43
2023-03-31T04:07:02.946Z,7.40
2023-03-31T04:09:31.370Z,7.55
2023-03-31T04:11:59.699Z,7.75
2023-03-31T04:14:27.981Z,7.60
2023-03-31T04:16:58.561Z,7.55
2023-03-31T04:19:27.496Z,7.88
2023-03-31T04:22:02.904Z,7.97
2023-03-31T04:24:33.168Z,7.80
2023-03-31T04:27:02.838Z,8.13
2023-03-31T04:29:33.428Z,7.55
2023-03-31T04:32:02.793Z,8.13
2023-03-31T04:34:35.872Z,7.78
2023-03-31T04:37:04.851Z,8.02
2023-03-31T04:39:34.527Z,8.82
2023-03-31T04:42:03.013Z,9.05
2023-03-31T04:44:31.495Z,9.05
2023-03-31T04:47:02.833Z,9.30
2023-03-31T04:49:33.435Z,9.85
2023-03-31T04:52:01.912Z,9.98
2023-03-31T04:54:30.259Z,9.80
2023-03-31T04:56:59.865Z,10.50
2023-03-31T04:59:28.069Z,10.65
2023-03-31T05:01:56.334Z,9.95
2023-03-31T05:04:24.812Z,10.38
2023-03-31T05:06:53.048Z,10.88
2023-03-31T05:09:22.009Z,11.52
2023-03-31T05:11:50.353Z,12.50
2023-03-31T05:14:20.805Z,12.98
2023-03-31T05:16:49.167Z,12.70
2023-03-31T05:19:18.232Z,13.05
2023-03-31T05:21:46.644Z,12.77
2023-03-31T05:24:15.776Z,11.85
2023-03-31T05:26:48.036Z,12.75
2023-03-31T05:29:16.675Z,12.23
2023-03-31T05:31:47.188Z,13.07
2023-03-31T05:34:15.873Z,12.20
2023-03-31T05:36:44.330Z,11.25
2023-03-31T05:39:12.595Z,13.35
2023-03-31T05:41:41.158Z,12.55
2023-03-31T05:44:09.447Z,11.57
2023-03-31T05:46:37.732Z,11.15
2023-03-31T05:49:07.617Z,12.23
2023-03-31T05:51:36.056Z,12.20
2023-03-31T05:54:04.502Z,11.02
2023-03-31T05:56:32.774Z,11.63
2023-03-31T05:59:01.704Z,11.15
2023-03-31T06:01:30.467Z,12.50
2023-03-31T06:03:59.116Z,11.48
2023-03-31T06:06:28.983Z,10.80
2023-03-31T06:08:57.492Z,11.95
2023-03-31T06:11:25.851Z,10.65
2023-03-31T06:13:54.179Z,11.40
2023-03-31T06:16:22.491Z,11.07
2023-03-31T06:18:51.332Z,11.05
2023-03-31T06:21:21.595Z,10.25
2023-03-31T06:23:55.065Z,10.90
2023-03-31T06:26:24.055Z,10.23
2023-03-31T06:28:52.252Z,9.95
2023-03-31T06:31:22.938Z,10.23
2023-03-31T06:33:52.329Z,10.77
2023-03-31T06:36:23.245Z,9.32
2023-03-31T06:38:52.950Z,9.70
2023-03-31T06:41:22.206Z,9.75
2023-03-31T06:43:51.066Z,9.27
2023-03-31T06:46:19.457Z,9.90
2023-03-31T06:48:47.797Z,9.55
2023-03-31T06:51:16.750Z,10.00
2023-03-31T06:53:44.963Z,7.97
2023-03-31T06:56:14.564Z,9.05
2023-03-31T06:58:42.841Z,9.25
2023-03-31T07:01:11.909Z,8.55
2023-03-31T07:03:40.786Z,8.50
2023-03-31T07:06:09.235Z,8.95
2023-03-31T07:08:37.512Z,9.07
2023-03-31T07:11:06.115Z,8.40
2023-03-31T07:13:35.961Z,8.93
2023-03-31T07:16:05.213Z,8.40
2023-03-31T07:18:36.502Z,8.10
2023-03-31T07:21:09.680Z,8.13
2023-03-31T07:23:38.686Z,9.38
2023-03-31T07:26:07.402Z,8.77
2023-03-31T07:28:37.069Z,7.78
2023-03-31T07:31:12.868Z,8.30
2023-03-31T07:33:41.405Z,8.48
2023-03-31T07:36:13.858Z,7.93
2023-03-31T07:38:45.645Z,7.85
2023-03-31T07:41:16.003Z,8.65
2023-03-31T07:43:46.969Z,7.28
2023-03-31T07:46:18.115Z,8.35
2023-03-31T07:48:47.701Z,7.25
2023-03-31T07:51:17.921Z,7.38
2023-03-31T07:53:46.923Z,7.55
2023-03-31T07:56:16.837Z,7.38
2023-03-31T07:58:47.276Z,6.85
2023-03-31T08:01:17.890Z,6.95
2023-03-31T08:03:47.260Z,6.57
2023-03-31T08:06:19.777Z,6.03
2023-03-31T08:08:48.475Z,6.10
2023-03-31T08:11:16.940Z,6.10
2023-03-31T08:13:46.551Z,6.15
2023-03-31T08:16:15.164Z,6.10
2023-03-31T08:18:43.584Z,6.20
2023-03-31T08:21:12.068Z,6.47
2023-03-31T08:23:40.407Z,7.07
2023-03-31T08:26:11.371Z,6.60
2023-03-31T08:28:39.855Z,7.25
2023-03-31T08:31:10.733Z,6.78
2023-03-31T08:33:39.218Z,6.22
2023-03-31T08:36:11.049Z,6.57
2023-03-31T08:38:41.974Z,6.03
2023-03-31T08:41:31.572Z,5.80
2023-03-31T08:44:05.428Z,6.47
2023-03-31T08:46:36.820Z,5.78
2023-03-31T08:49:07.652Z,6.38
2023-03-31T08:51:42.007Z,6.05
2023-03-31T08:54:18.470Z,6.45
2023-03-31T08:56:51.086Z,5.65
2023-03-31T08:59:31.342Z,5.82
2023-03-31T09:02:18.445Z,5.68
2023-03-31T09:05:23.381Z,5.45
2023-03-31T09:08:05.872Z,5.20
2023-03-31T09:10:51.217Z,5.00
2023-03-31T09:13:48.360Z,4.85
2023-03-31T09:16:20.533Z,4.40
2023-03-31T09:18:53.538Z,5.55
2023-03-31T09:21:29.857Z,4.97
2023-03-31T09:24:06.577Z,5.45
2023-03-31T09:26:42.447Z,5.93
2023-03-31T09:29:19.113Z,5.47
2023-03-31T09:31:48.401Z,5.07
2023-03-31T09:34:26.056Z,5.80
2023-03-31T09:36:54.232Z,4.63
2023-03-31T09:39:22.955Z,4.75
2023-03-31T09:41:53.985Z,5.20
2023-03-31T09:44:29.561Z,5.00
2023-03-31T09:47:01.162Z,4.70
2023-03-31T09:49:36.396Z,4.53
2023-03-31T09:52:15.477Z,4.65
2023-03-31T09:54:50.758Z,4.72
2023-03-31T09:57:30.565Z,4.60
2023-03-31T10:00:13.640Z,4.57
2023-03-31T10:02:45.814Z,5.05
2023-03-31T10:05:30.139Z,4.80
2023-03-31T10:08:22.419Z,5.28
2023-03-31T10:10:53.993Z,4.80
2023-03-31T10:13:26.603Z,4.90
2023-03-31T10:16:02.669Z,5.57
2023-03-31T10:18:36.493Z,6.10
2023-03-31T10:21:09.273Z,4.97
2023-03-31T10:23:37.681Z,5.65
2023-03-31T10:26:07.306Z,5.90
2023-03-31T10:28:37.794Z,5.90
2023-03-31T10:31:08.559Z,6.22
2023-03-31T10:33:50.732Z,6.97
2023-03-31T10:36:27.641Z,6.45
2023-03-31T10:38:57.536Z,6.60
2023-03-31T10:41:29.975Z,5.88
2023-03-31T10:44:00.030Z,6.03
2023-03-31T10:46:44.108Z,5.93
2023-03-31T10:49:28.301Z,5.72
2023-03-31T10:52:00.994Z,5.93
2023-03-31T10:54:29.217Z,5.75
2023-03-31T10:57:03.351Z,5.70
2023-03-31T10:59:52.707Z,4.90
2023-03-31T11:03:23.887Z,4.90
2023-03-31T11:06:01.347Z,5.72
2023-03-31T11:08:51.225Z,5.10
2023-03-31T11:11:48.752Z,5.20
2023-03-31T11:14:33.661Z,5.10
2023-03-31T11:17:11.797Z,5.47
2023-03-31T11:19:51.393Z,5.18
2023-03-31T11:22:32.598Z,5.95
2023-03-31T11:25:23.646Z,5.53
2023-03-31T11:28:23.872Z,4.80
2023-03-31T11:31:03.629Z,4.65
2023-03-31T11:34:00.767Z,4.50
2023-03-31T11:36:50.467Z,4.10
2023-03-31T11:39:40.898Z,4.50
2023-03-31T11:42:17.721Z,4.30
2023-03-31T11:44:52.963Z,4.15
2023-03-31T11:47:26.834Z,5.07
2023-03-31T11:49:59.606Z,4.32
2023-03-31T11:52:33.755Z,3.70
2023-03-31T11:55:15.509Z,3.80
2023-03-31T11:57:51.469Z,4.30
2023-03-31T12:00:24.131Z,3.33
2023-03-31T12:02:58.601Z,3.25
2023-03-31T12:05:31.410Z,3.17
2023-03-31T12:08:08.140Z,3.30
2023-03-31T12:10:40.314Z,3.50
2023-03-31T12:13:37.469Z,3.70
2023-03-31T12:16:13.866Z,3.60
2023-03-31T12:18:54.450Z,4.10
2023-03-31T12:21:25.613Z,4.25
2023-03-31T12:23:53.897Z,3.53
2023-03-31T12:26:41.093Z,3.97
2023-03-31T12:29:30.487Z,4.40
2023-03-31T12:32:04.142Z,4.32
2023-03-31T12:34:34.151Z,4.55
2023-03-31T12:37:48.297Z,4.63
2023-03-31T12:40:35.746Z,5.47
2023-03-31T12:43:26.243Z,5.82
2023-03-31T12:46:18.888Z,6.18
2023-03-31T12:49:03.823Z,5.43
2023-03-31T12:51:56.978Z,5.10
2023-03-31T12:54:58.614Z,5.70
2023-03-31T12:57:28.024Z,6.18
2023-03-31T13:00:26.309Z,6.28
2023-03-31T13:03:44.991Z,6.13
2023-03-31T13:06:49.421Z,6.72
2023-03-31T13:09:57.481Z,7.28
2023-03-31T13:12:30.875Z,6.45
2023-03-31T13:18:00.813Z,7.35
2023-03-31T13:20:37.505Z,7.03
2023-03-31T13:23:17.303Z,7.20
2023-03-31T13:25:49.815Z,7.72
2023-03-31T13:28:42.201Z,6.25
2023-03-31T13:31:12.485Z,6.65
2023-03-31T13:33:46.610Z,7.25
2023-03-31T13:36:50.917Z,7.35
2023-03-31T13:40:14.139Z,7.25
2023-03-31T13:43:16.500Z,6.82
2023-03-31T13:46:00.649Z,6.47
2023-03-31T13:48:44.911Z,6.25
2023-03-31T13:51:48.638Z,6.55
2023-03-31T13:54:54.466Z,6.70
2023-03-31T13:57:44.876Z,6.47
2023-03-31T14:00:33.625Z,5.82
2023-03-31T14:03:38.525Z,6.72
2023-03-31T14:06:17.553Z,6.15
2023-03-31T14:08:54.216Z,5.88
2023-03-31T14:11:27.259Z,5.40
2023-03-31T14:14:07.932Z,5.07
2023-03-31T14:16:41.339Z,5.30
2023-03-31T14:19:48.027Z,4.15
2023-03-31T14:22:32.265Z,3.45
2023-03-31T14:25:15.656Z,4.00
2023-03-31T14:28:05.323Z,3.33
2023-03-31T14:30:46.826Z,2.97
2023-03-31T14:33:35.058Z,3.13
2023-03-31T14:36:15.939Z,3.30
2023-03-31T14:38:46.447Z,2.95
2023-03-31T14:41:29.593Z,3.30
2023-03-31T14:44:04.017Z,2.95
2023-03-31T14:46:37.884Z,2.60
2023-03-31T14:49:19.762Z,3.20
2023-03-31T14:51:48.449Z,2.90
2023-03-31T14:54:19.221Z,2.92
2023-03-31T14:56:53.450Z,2.95
2023-03-31T14:59:27.546Z,3.28
2023-03-31T15:02:00.255Z,3.53
2023-03-31T15:04:42.157Z,3.20
2023-03-31T15:07:12.390Z,3.40
2023-03-31T15:09:44.413Z,3.58
2023-03-31T15:12:18.187Z,3.40
2023-03-31T15:14:49.885Z,3.00
2023-03-31T15:17:24.617Z,3.30
2023-03-31T15:19:57.763Z,3.13
2023-03-31T15:22:28.374Z,2.90
2023-03-31T15:24:57.120Z,3.25
2023-03-31T15:27:37.666Z,3.00
2023-03-31T15:30:09.934Z,2.90
2023-03-31T15:32:40.711Z,2.40
2023-03-31T15:35:23.632Z,2.10
2023-03-31T15:37:55.018Z,1.95
2023-03-31T15:40:27.094Z,1.75
2023-03-31T15:45:49.962Z,1.80
2023-03-31T15:48:24.237Z,1.92
2023-03-31T15:50:53.135Z,1.83
2023-03-31T15:53:37.962Z,1.83
2023-03-31T15:56:07.421Z,1.85
2023-03-31T15:58:58.017Z,1.60
2023-03-31T16:01:33.059Z,1.70
2023-03-31T16:04:07.531Z,1.65
2023-03-31T16:06:52.166Z,2.00
2023-03-31T16:09:24.902Z,1.92
2023-03-31T16:11:57.245Z,2.40
2023-03-31T16:14:33.522Z,2.20
2023-03-31T16:17:07.377Z,2.22
2023-03-31T16:19:45.806Z,2.45
2023-03-31T16:22:20.564Z,2.80
2023-03-31T16:24:49.311Z,2.65
2023-03-31T16:27:18.812Z,2.35
2023-03-31T16:29:48.605Z,2.53
2023-03-31T16:32:20.621Z,2.85
2023-03-31T16:34:58.099Z,2.78
2023-03-31T16:37:27.306Z,2.72
2023-03-31T16:39:56.554Z,2.92
2023-03-31T16:42:25.869Z,3.10
2023-03-31T16:45:13.176Z,2.75
2023-03-31T16:47:45.286Z,2.97
2023-03-31T16:50:15.590Z,3.20
2023-03-31T16:52:45.292Z,3.30
2023-03-31T16:55:13.621Z,3.58
2023-03-31T16:57:41.915Z,3.40
2023-03-31T17:00:14.142Z,3.08
2023-03-31T17:02:42.708Z,3.13
2023-03-31T17:05:13.612Z,2.97
2023-03-31T17:07:42.612Z,2.92
2023-03-31T17:10:12.656Z,3.10
2023-03-31T17:12:41.228Z,3.53
2023-03-31T17:15:12.919Z,3.22
2023-03-31T17:17:41.384Z,3.58
2023-03-31T17:20:12.046Z,3.08
2023-03-31T17:22:40.538Z,3.50
2023-03-31T17:25:11.239Z,3.22
2023-03-31T17:27:39.870Z,3.10
2023-03-31T17:30:11.486Z,3.17
2023-03-31T17:32:41.212Z,3.42
2023-03-31T17:35:11.615Z,3.35
2023-03-31T17:37:39.925Z,3.17
2023-03-31T17:40:10.970Z,3.53
2023-03-31T17:42:39.509Z,3.50
2023-03-31T17:45:12.054Z,3.40
2023-03-31T17:47:41.316Z,3.22
2023-03-31T17:50:11.212Z,3.70
2023-03-31T17:52:40.409Z,3.15
2023-03-31T17:55:09.612Z,3.72
2023-03-31T17:57:38.937Z,4.68
2023-03-31T18:00:11.722Z,4.10
2023-03-31T18:02:41.191Z,4.20
2023-03-31T18:05:11.497Z,4.20
2023-03-31T18:07:41.327Z,3.85
2023-03-31T18:10:11.948Z,4.05
2023-03-31T18:12:41.102Z,4.00
2023-03-31T18:15:12.316Z,4.25
2023-03-31T18:17:40.665Z,4.22
2023-03-31T18:20:10.313Z,4.50
2023-03-31T18:22:38.781Z,4.55
2023-03-31T18:25:09.334Z,4.93
2023-03-31T18:27:38.246Z,5.05
2023-03-31T18:30:08.455Z,4.35
2023-03-31T18:32:38.540Z,4.82
2023-03-31T18:35:08.250Z,4.65
2023-03-31T18:37:36.460Z,5.15
2023-03-31T18:40:05.574Z,4.88
2023-03-31T18:42:34.241Z,5.60
2023-03-31T18:45:02.518Z,5.85
2023-03-31T18:47:30.853Z,5.55
2023-03-31T18:50:01.153Z,5.80
2023-03-31T18:52:29.757Z,6.15
2023-03-31T18:54:58.255Z,5.75
2023-03-31T18:57:26.614Z,6.47
2023-03-31T18:59:55.673Z,5.60
2023-03-31T19:02:25.054Z,6.13
2023-03-31T19:04:53.323Z,6.35
2023-03-31T19:07:22.899Z,7.13
2023-03-31T19:09:51.377Z,7.25
2023-03-31T19:12:19.571Z,7.22
2023-03-31T19:14:47.840Z,8.15
2023-03-31T19:17:17.686Z,7.30
2023-03-31T19:19:46.188Z,7.72
2023-03-31T19:22:14.413Z,8.00
2023-03-31T19:24:44.977Z,7.85
2023-03-31T19:27:13.857Z,7.47
2023-03-31T19:29:42.183Z,6.53
2023-03-31T19:32:10.756Z,7.20
2023-03-31T19:34:39.208Z,6.82
2023-03-31T19:37:07.460Z,6.72
2023-03-31T19:39:35.986Z,6.00
2023-03-31T19:42:05.710Z,6.75
2023-03-31T19:44:34.064Z,5.80
2023-03-31T19:47:02.330Z,5.78
2023-03-31T19:49:30.637Z,6.20
2023-03-31T19:51:58.888Z,5.90
2023-03-31T19:54:27.375Z,5.90
2023-03-31T19:56:55.964Z,5.53
2023-03-31T19:59:25.714Z,5.57
2023-03-31T20:01:54.197Z,5.32
2023-03-31T20:04:22.913Z,5.93
2023-03-31T20:06:51.171Z,5.85
2023-03-31T20:09:19.404Z,5.80
2023-03-31T20:11:47.681Z,5.88
2023-03-31T20:14:16.170Z,5.28
2023-03-31T20:16:46.310Z,5.65
2023-03-31T20:19:16.548Z,6.32
2023-03-31T20:21:46.760Z,5.45
2023-03-31T20:24:18.826Z,5.32
2023-03-31T20:26:47.776Z,5.38
2023-03-31T20:29:16.090Z,6.00
2023-03-31T20:31:45.986Z,5.90
2023-03-31T20:34:17.684Z,5.63
2023-03-31T20:36:49.155Z,5.60
2023-03-31T20:39:18.330Z,5.53
2023-03-31T20:41:47.191Z,5.30
2023-03-31T20:44:16.032Z,4.80
2023-03-31T20:46:45.915Z,5.05
2023-03-31T20:49:14.784Z,4.63
2023-03-31T20:51:45.121Z,5.38
2023-03-31T20:54:13.436Z,5.75
2023-03-31T20:56:42.891Z,6.03
2023-03-31T20:59:14.742Z,4.90
2023-03-31T21:01:47.172Z,5.35
2023-03-31T21:04:16.933Z,5.90
2023-03-31T21:06:48.034Z,5.75
2023-03-31T21:09:18.092Z,5.68
2023-03-31T21:11:47.313Z,5.80
2023-03-31T21:14:17.487Z,6.07
2023-03-31T21:16:47.183Z,6.40
2023-03-31T21:19:16.191Z,6.15
2023-03-31T21:21:44.656Z,6.57
2023-03-31T21:24:13.912Z,5.97
2023-03-31T21:26:42.301Z,6.13
2023-03-31T21:29:10.646Z,5.90
2023-03-31T21:31:38.995Z,5.60
2023-03-31T21:34:09.060Z,4.50
2023-03-31T21:36:37.346Z,4.47
2023-03-31T21:39:06.128Z,5.10
2023-03-31T21:41:34.444Z,4.60
2023-03-31T21:44:03.505Z,5.07
2023-03-31T21:46:34.410Z,5.20
2023-03-31T21:49:04.000Z,4.85
2023-03-31T21:51:33.658Z,5.68
2023-03-31T21:54:01.864Z,5.38
2023-03-31T21:56:32.433Z,5.25
2023-03-31T21:59:02.184Z,5.13
2023-03-31T22:01:31.232Z,5.13
2023-03-31T22:04:00.197Z,5.57
2023-03-31T22:06:28.608Z,5.45
2023-03-31T22:08:58.319Z,5.13
2023-03-31T22:11:28.274Z,5.65
2023-03-31T22:13:57.502Z,6.30
2023-03-31T22:16:25.946Z,6.10
2023-03-31T22:18:56.014Z,6.20
2023-03-31T22:21:41.453Z,6.78
2023-03-31T22:24:13.823Z,6.82
2023-03-31T22:26:42.139Z,7.05
2023-03-31T22:29:15.623Z,7.38
2023-03-31T22:31:43.963Z,7.85
2023-03-31T22:34:12.245Z,7.00
2023-03-31T22:36:40.639Z,7.35
2023-03-31T22:39:10.648Z,7.93
2023-03-31T22:41:38.974Z,7.90
2023-03-31T22:44:07.229Z,7.18
2023-03-31T22:46:36.109Z,8.85
2023-03-31T22:49:04.449Z,8.27
2023-03-31T22:51:34.441Z,8.10
2023-03-31T22:54:02.649Z,8.07
2023-03-31T22:56:32.215Z,8.07
2023-03-31T22:59:00.913Z,8.32
2023-03-31T23:01:29.552Z,8.13
2023-03-31T23:03:58.013Z,8.93
2023-03-31T23:06:26.599Z,8.80
2023-03-31T23:08:54.832Z,9.50
2023-03-31T23:11:23.146Z,9.15
2023-03-31T23:13:53.757Z,8.52
2023-03-31T23:16:25.590Z,9.10
2023-03-31T23:18:56.215Z,9.43
2023-03-31T23:21:26.984Z,9.38
2023-03-31T23:23:58.559Z,9.32
2023-03-31T23:26:27.908Z,9.15
2023-03-31T23:28:58.743Z,8.55
2023-03-31T23:31:29.673Z,9.10
2023-03-31T23:34:00.559Z,9.45
2023-03-31T23:36:30.936Z,9.25
2023-03-31T23:38:59.352Z,8.75
2023-03-31T23:41:27.732Z,9.07
2023-03-31T23:43:57.638Z,8.82
2023-03-31T23:46:26.470Z,9.35
2023-03-31T23:48:55.028Z,8.48
2023-03-31T23:51:23.315Z,9.00
2023-03-31T23:53:51.578Z,8.30
2023-03-31T23:56:19.944Z,8.50
2023-03-31T23:58:48.216Z,9.05
